Meath Environmental Platform

Observations for Trim Market St

Time AQI Temp °C Hum % Pres Pa CO μg/m³ H₂S μg/m³ NO μg/m³ NO₂ μg/m³ O₃ μg/m³ SO₂ μg/m³ PM1 μg/m³ PM2.5 μg/m³ PM10 μg/m³
Wednesday 26 August 2026
09:59 2 18 83 2,147,483,647 0.36 0 1.88 20.95 31.78 0 7.13 9.01 15.25
09:56 2 17.9 83 2,147,483,647 0.36 0 1.34 22.03 33.01 0 7.84 9.94 14.7
09:55 2 17.9 83 2,147,483,647 0.27 0 1.34 14 37.37 0 5.7 7.6 11.39
09:54 2 17.9 83 2,147,483,647 0.26 0 1.07 15.15 39.79 0 6.41 7.14 10.84
09:50 2 17.9 83 2,147,483,647 0.25 0 1.01 13.12 35.58 0 7.13 9.48 13.6
09:41 2 17.9 83 2,147,483,647 1.05 0 1.31 16.24 37.04 0 6.41 7.12 12.48
09:40 2 17.9 83 2,147,483,647 0.34 0 1.34 18.21 35.94 0 5.7 7.59 13.58
09:39 2 17.9 83 2,147,483,647 0.26 0 1.17 13.41 38.56 0 6.41 7.58 11.93
09:38 2 17.9 83 2,147,483,647 0.28 0 1.25 14.31 36.65 0 6.41 7.58 11.38
09:37 2 17.9 83 2,147,483,647 0.27 0 1.29 13.05 39.02 0 5.7 8.99 13.03
09:36 2 17.8 83 2,147,483,647 0.29 0 1.33 14.22 41.85 0 6.41 7.11 13.57
09:35 2 17.9 83 2,147,483,647 0.29 0 1.33 15.26 39.69 0 4.99 6.64 10.83
09:34 2 17.9 83 2,147,483,647 0.29 0 1.19 13.91 36.03 0 5.7 6.18 10.28
09:33 2 17.9 83 2,147,483,647 0.32 0 1.2 14.95 41.03 0 5.7 6.17 10.27
09:32 2 17.8 83 2,147,483,647 0.29 0 1.29 15.12 43.72 0 5.7 7.1 11.37
09:31 2 17.8 83 2,147,483,647 0.3 0 1.3 17.22 43.1 0 6.41 8.03 12.46
09:30 2 17.8 83 2,147,483,647 0.29 0 1.35 17.87 35.57 0 6.41 8.5 13.56
09:29 2 17.8 83 2,147,483,647 0.31 0 2.11 19.61 33.65 0 6.41 8.5 12.46
09:28 2 17.8 83 2,147,483,647 0.33 0 2.15 19.87 41.95 0 5.7 7.56 11.36
09:22 2 17.7 84 2,147,483,647 0.37 0 1.19 19.84 38.15 0 6.41 7.09 11.36